Time;durP1;ratioP1;P1;durP2;ratioP2;P2;SDS_P1;SDS_P2;PMS_P1;PMS_P2;Temp;Humidity;BMP_temperature;BMP_pressure;BME280_temperature;BME280_humidity;BME280_pressure;Samples;Min_cycle;Max_cycle;Signal;HPM_P1;HPM_P2
2021/04/08 00:02:11;;;;;;;20.23;8.68;;;2.30;83.70;;;;;;5080054;28;20095;-69
2021/04/08 00:04:36;;;;;;;21.00;9.07;;;2.30;83.70;;;;;;5079498;28;20016;-69
2021/04/08 00:07:02;;;;;;;15.77;9.05;;;2.30;83.80;;;;;;5092887;28;20032;-69
2021/04/08 00:09:28;;;;;;;20.10;9.32;;;2.40;83.90;;;;;;5092603;28;20059;-69
2021/04/08 00:11:57;;;;;;;18.27;8.98;;;2.30;83.80;;;;;;5092722;28;20070;-69
2021/04/08 00:14:24;;;;;;;21.95;10.02;;;2.40;83.70;;;;;;5092523;28;20024;-69
2021/04/08 00:16:50;;;;;;;24.30;11.80;;;2.30;83.60;;;;;;5092976;28;20095;-69
2021/04/08 00:19:16;;;;;;;24.02;12.45;;;2.30;83.70;;;;;;5092546;28;20024;-69
2021/04/08 00:21:41;;;;;;;21.10;11.85;;;2.30;83.60;;;;;;5093822;28;20016;-69
2021/04/08 00:24:07;;;;;;;20.35;10.55;;;2.30;83.60;;;;;;5093919;28;20503;-69
2021/04/08 00:26:33;;;;;;;21.73;11.88;;;2.30;83.60;;;;;;5078032;28;20031;-69
2021/04/08 00:28:58;;;;;;;25.05;11.52;;;2.30;83.90;;;;;;5084407;28;20035;-69
2021/04/08 00:31:24;;;;;;;23.30;11.82;;;2.20;83.90;;;;;;5085600;28;20027;-69
2021/04/08 00:33:50;;;;;;;21.83;11.73;;;2.20;83.90;;;;;;5080122;28;20027;-69
2021/04/08 00:36:16;;;;;;;21.88;12.18;;;2.10;84.10;;;;;;5079684;28;20025;-69
2021/04/08 00:38:41;;;;;;;23.48;13.13;;;2.00;84.40;;;;;;5092052;28;20020;-69
2021/04/08 00:41:08;;;;;;;23.13;13.10;;;2.00;84.60;;;;;;5093727;28;20028;-69
2021/04/08 00:43:33;;;;;;;22.65;12.93;;;1.90;84.80;;;;;;5093242;28;20028;-69
2021/04/08 00:45:59;;;;;;;25.02;13.00;;;1.90;85.10;;;;;;5093423;28;20515;-68
2021/04/08 00:48:25;;;;;;;23.80;13.05;;;1.90;85.30;;;;;;5092997;28;20466;-69
2021/04/08 00:50:51;;;;;;;22.38;12.18;;;1.90;85.50;;;;;;5093406;28;20454;-69
2021/04/08 00:53:20;;;;;;;20.20;12.13;;;1.90;85.40;;;;;;5093197;28;20034;-69
2021/04/08 00:55:48;;;;;;;22.75;12.23;;;1.90;85.50;;;;;;5086560;28;20081;-69
2021/04/08 00:58:15;;;;;;;20.15;11.45;;;2.00;85.60;;;;;;5083570;28;20111;-68
2021/04/08 01:00:43;;;;;;;20.95;11.68;;;2.00;85.60;;;;;;5077565;28;20031;-69
2021/04/08 01:03:10;;;;;;;24.90;13.32;;;2.00;85.40;;;;;;5081431;28;20024;-69
2021/04/08 01:05:36;;;;;;;21.90;11.80;;;1.90;85.50;;;;;;5086984;28;20040;-69
2021/04/08 01:08:02;;;;;;;20.33;13.07;;;1.90;85.70;;;;;;5080506;28;20062;-69
2021/04/08 01:10:29;;;;;;;24.55;12.95;;;2.00;85.70;;;;;;5078356;28;20485;-69
2021/04/08 01:13:04;;;;;;;31.77;15.02;;;2.00;85.70;;;;;;5085362;28;20020;-76
2021/04/08 01:15:30;;;;;;;;;;;2.00;85.60;;;;;;5086182;28;20035;-69
2021/04/08 01:18:20;;;;;;;31.92;14.35;;;2.00;85.30;;;;;;5092918;28;19900;-69
2021/04/08 01:21:01;;;;;;;25.52;14.57;;;1.90;85.50;;;;;;5093145;28;20024;-76
2021/04/08 01:23:48;;;;;;;31.70;16.10;;;1.90;85.40;;;;;;5093474;28;20359;-69
2021/04/08 01:26:51;;;;;;;30.10;16.23;;;1.90;85.60;;;;;;5089855;28;20029;-69
2021/04/08 01:30:15;;;;;;;28.88;13.55;;;1.80;85.60;;;;;;5086471;28;20455;-72
2021/04/08 01:32:49;;;;;;;26.63;12.82;;;1.80;85.70;;;;;;5014175;28;20029;-73
2021/04/08 01:35:19;;;;;;;24.90;11.10;;;1.80;85.70;;;;;;5030316;28;20513;-69
2021/04/08 01:37:53;;;;;;;16.52;9.35;;;1.70;85.60;;;;;;5059227;28;20040;-69
2021/04/08 01:40:20;;;;;;;15.40;9.40;;;1.70;85.70;;;;;;5079962;28;20028;-70
2021/04/08 01:42:47;;;;;;;15.00;8.75;;;1.70;85.90;;;;;;5093926;28;20073;-68
2021/04/08 01:45:16;;;;;;;15.20;8.20;;;1.70;85.90;;;;;;5096421;28;20102;-69
2021/04/08 01:47:43;;;;;;;16.83;9.65;;;1.70;86.00;;;;;;5083816;28;20031;-69
2021/04/08 01:50:11;;;;;;;18.58;8.35;;;1.70;86.40;;;;;;5089398;28;20028;-69
2021/04/08 01:52:40;;;;;;;16.05;8.38;;;1.70;86.40;;;;;;5086796;28;20020;-69
2021/04/08 01:55:07;;;;;;;17.83;8.15;;;1.70;86.20;;;;;;5080491;28;20381;-69
2021/04/08 01:57:35;;;;;;;16.23;7.88;;;1.70;86.20;;;;;;5086605;28;20111;-68
2021/04/08 02:00:03;;;;;;;15.35;7.82;;;1.80;86.30;;;;;;5091346;28;20028;-69
2021/04/08 02:02:29;;;;;;;17.48;8.88;;;1.80;86.30;;;;;;5093242;28;20048;-69
2021/04/08 02:04:57;;;;;;;18.25;9.70;;;1.80;86.30;;;;;;5084341;28;20082;-70
2021/04/08 02:07:24;;;;;;;18.13;10.07;;;1.80;86.20;;;;;;5096289;28;20070;-69
2021/04/08 02:09:51;;;;;;;22.02;10.93;;;1.80;86.00;;;;;;5087194;28;20343;-68
2021/04/08 02:12:19;;;;;;;23.10;11.65;;;1.70;86.00;;;;;;5089123;28;20016;-71
2021/04/08 02:14:46;;;;;;;16.83;10.68;;;1.70;86.20;;;;;;5095122;28;20027;-69
2021/04/08 02:17:15;;;;;;;17.80;10.23;;;1.60;86.10;;;;;;5082103;28;20024;-69
2021/04/08 02:19:46;;;;;;;18.25;9.85;;;1.60;86.20;;;;;;5090118;28;20021;-69
2021/04/08 02:22:13;;;;;;;17.15;9.68;;;1.60;86.30;;;;;;5086733;28;20020;-69
2021/04/08 02:24:40;;;;;;;16.48;9.90;;;1.50;86.40;;;;;;5095718;28;20134;-68
2021/04/08 02:27:07;;;;;;;19.23;9.70;;;1.50;86.50;;;;;;5095867;28;20024;-68
2021/04/08 02:29:33;;;;;;;17.85;9.65;;;1.50;86.70;;;;;;5095801;28;20027;-68
2021/04/08 02:32:01;;;;;;;17.58;9.20;;;1.50;86.90;;;;;;5096292;28;20028;-68
2021/04/08 02:34:27;;;;;;;16.00;9.63;;;1.50;87.00;;;;;;5096032;28;20016;-69
2021/04/08 02:36:53;;;;;;;16.58;9.07;;;1.50;87.10;;;;;;5095687;28;20023;-74
2021/04/08 02:39:19;;;;;;;16.63;10.05;;;1.50;87.10;;;;;;5095786;28;20027;-68
2021/04/08 02:41:46;;;;;;;18.30;10.20;;;1.50;87.20;;;;;;5094418;28;20106;-68
2021/04/08 02:44:13;;;;;;;19.48;10.95;;;1.40;87.30;;;;;;5094556;28;20016;-68
2021/04/08 02:46:40;;;;;;;26.55;14.95;;;1.40;87.20;;;;;;5094294;28;20066;-68
2021/04/08 02:49:06;;;;;;;33.28;17.48;;;1.40;87.20;;;;;;5095395;28;20024;-69
2021/04/08 02:51:49;;;;;;;31.50;20.17;;;1.40;87.30;;;;;;5080020;28;20020;-68
2021/04/08 02:54:57;;;;;;;38.17;20.30;;;1.30;87.30;;;;;;5085229;28;20021;-69
2021/04/08 02:57:49;;;;;;;36.58;20.40;;;1.30;87.50;;;;;;5074350;28;20107;-69
2021/04/08 03:00:15;;;;;;;28.70;18.17;;;1.20;87.80;;;;;;5094042;28;20406;-70
2021/04/08 03:02:44;;;;;;;32.67;16.83;;;1.20;87.70;;;;;;5090313;28;20043;-68
2021/04/08 03:05:12;;;;;;;28.52;16.25;;;1.20;87.80;;;;;;5085217;28;20073;-68
2021/04/08 03:07:43;;;;;;;31.90;16.67;;;1.20;87.90;;;;;;5080882;28;20055;-69
2021/04/08 03:10:12;;;;;;;26.83;14.55;;;1.20;88.20;;;;;;5083330;28;20024;-69
2021/04/08 03:12:48;;;;;;;31.27;15.27;;;1.10;88.20;;;;;;5090951;28;20026;-68
2021/04/08 03:15:22;;;;;;;29.17;14.85;;;1.20;88.60;;;;;;5093789;28;20032;-68
2021/04/08 03:17:51;;;;;;;32.55;16.23;;;1.20;88.40;;;;;;5079369;28;20012;-67
2021/04/08 03:20:18;;;;;;;30.45;14.90;;;1.20;88.50;;;;;;5094954;28;20020;-69
2021/04/08 03:22:45;;;;;;;35.15;16.60;;;1.20;88.80;;;;;;5093322;28;20028;-68
2021/04/08 03:25:12;;;;;;;31.92;15.70;;;1.30;88.70;;;;;;5076904;28;20378;-68
2021/04/08 03:27:40;;;;;;;30.55;14.25;;;1.30;88.60;;;;;;5079485;28;20052;-68
2021/04/08 03:30:15;;;;;;;30.30;16.10;;;1.40;89.20;;;;;;5094868;28;20031;-68
2021/04/08 03:32:42;;;;;;;29.88;15.45;;;1.50;89.40;;;;;;5094871;28;20036;-72
2021/04/08 03:35:10;;;;;;;30.40;14.75;;;1.50;89.50;;;;;;5094567;28;20385;-68
2021/04/08 03:37:37;;;;;;;30.42;15.73;;;1.70;90.00;;;;;;5080543;28;20059;-68
2021/04/08 03:40:04;;;;;;;27.35;14.73;;;1.90;90.20;;;;;;5087239;28;20017;-68
2021/04/08 03:42:31;;;;;;;25.65;14.13;;;2.00;90.20;;;;;;5085493;28;20367;-68
2021/04/08 03:44:56;;;;;;;26.10;14.70;;;2.20;90.40;;;;;;5093807;28;20460;-68
2021/04/08 03:47:23;;;;;;;24.90;14.27;;;2.40;90.40;;;;;;5094478;28;20058;-69
2021/04/08 03:49:51;;;;;;;27.10;15.07;;;2.60;90.50;;;;;;5094116;28;20024;-68
2021/04/08 03:52:18;;;;;;;25.90;14.02;;;2.90;90.60;;;;;;5093300;28;20369;-68
2021/04/08 03:54:47;;;;;;;29.00;14.50;;;3.20;90.40;;;;;;5094799;28;20024;-68
2021/04/08 03:57:16;;;;;;;27.30;15.07;;;3.50;89.90;;;;;;5079735;28;20017;-68
2021/04/08 03:59:44;;;;;;;23.77;14.27;;;3.80;89.80;;;;;;5088010;28;20027;-68
2021/04/08 04:02:13;;;;;;;23.05;15.05;;;4.10;89.20;;;;;;5090060;28;20061;-68
2021/04/08 04:04:40;;;;;;;24.90;15.10;;;4.30;88.50;;;;;;5079778;28;20339;-68
2021/04/08 04:07:06;;;;;;;22.33;14.20;;;4.70;88.20;;;;;;5077861;28;20340;-68
2021/04/08 04:09:32;;;;;;;24.05;13.48;;;5.00;87.20;;;;;;5085882;28;20016;-68
2021/04/08 04:11:58;;;;;;;19.60;12.55;;;5.30;86.30;;;;;;5085451;28;20077;-68
2021/04/08 04:14:27;;;;;;;16.92;10.75;;;5.50;85.00;;;;;;5093584;28;20020;-68
2021/04/08 04:16:56;;;;;;;18.40;11.15;;;5.80;84.10;;;;;;5093762;28;20424;-74
2021/04/08 04:19:26;;;;;;;20.88;11.30;;;6.00;83.30;;;;;;5092183;28;20396;-69
2021/04/08 04:21:52;;;;;;;18.35;11.70;;;6.30;82.40;;;;;;5089254;28;20370;-69
2021/04/08 04:24:18;;;;;;;20.40;12.50;;;6.60;81.70;;;;;;5093508;28;20102;-66
2021/04/08 04:26:44;;;;;;;20.13;13.15;;;6.80;80.10;;;;;;5076148;28;20463;-69
2021/04/08 04:29:11;;;;;;;18.65;11.65;;;7.10;79.30;;;;;;5093164;28;20046;-69
2021/04/08 04:31:38;;;;;;;16.13;10.73;;;7.40;78.50;;;;;;5092781;28;20099;-69
2021/04/08 04:34:05;;;;;;;16.20;11.73;;;7.70;77.00;;;;;;5093667;28;20020;-69
2021/04/08 04:36:34;;;;;;;19.20;12.82;;;7.90;75.90;;;;;;5093523;28;20020;-69
2021/04/08 04:39:02;;;;;;;18.85;13.15;;;8.20;74.90;;;;;;5083737;28;20024;-69
2021/04/08 04:41:27;;;;;;;17.55;12.30;;;8.50;74.00;;;;;;5087231;28;20512;-70
2021/04/08 04:43:53;;;;;;;19.88;12.98;;;8.70;72.80;;;;;;5093295;28;20027;-70
2021/04/08 04:46:19;;;;;;;20.35;11.75;;;9.00;71.50;;;;;;5091899;28;20071;-69
2021/04/08 04:48:44;;;;;;;20.50;12.75;;;9.30;70.90;;;;;;5092016;28;20373;-69
2021/04/08 04:51:10;;;;;;;20.55;12.90;;;9.50;69.60;;;;;;5093196;28;20026;-70
2021/04/08 04:53:36;;;;;;;22.30;13.45;;;9.80;68.40;;;;;;5087411;28;20013;-70
2021/04/08 04:56:02;;;;;;;24.55;13.43;;;10.20;67.20;;;;;;5083616;28;20027;-70
2021/04/08 04:58:27;;;;;;;21.77;14.38;;;10.60;65.70;;;;;;5092586;28;20335;-70
2021/04/08 05:00:53;;;;;;;20.83;13.45;;;10.70;63.70;;;;;;5093261;28;20023;-75
2021/04/08 05:03:19;;;;;;;19.13;12.63;;;10.90;63.10;;;;;;5082080;28;20020;-71
2021/04/08 05:05:44;;;;;;;19.77;12.20;;;11.20;62.40;;;;;;5089048;28;20051;-71
2021/04/08 05:08:10;;;;;;;17.80;11.73;;;11.40;60.90;;;;;;5093150;28;20437;-69
2021/04/08 05:10:36;;;;;;;18.52;12.40;;;11.40;59.90;;;;;;5077159;28;20021;-69
2021/04/08 05:13:01;;;;;;;17.42;11.63;;;11.70;60.50;;;;;;5086091;28;20023;-70
2021/04/08 05:15:27;;;;;;;15.73;10.48;;;11.90;59.80;;;;;;5085353;28;20024;-71
2021/04/08 05:17:53;;;;;;;16.50;9.80;;;12.10;58.70;;;;;;5092241;28;20224;-70
2021/04/08 05:20:19;;;;;;;13.10;9.70;;;12.20;57.90;;;;;;5092874;28;20015;-78
2021/04/08 05:22:44;;;;;;;17.92;10.82;;;12.30;57.40;;;;;;5092706;28;20094;-69
2021/04/08 05:25:10;;;;;;;15.75;9.82;;;12.40;57.40;;;;;;5092427;28;20024;-75
2021/04/08 05:27:36;;;;;;;15.95;9.65;;;12.80;56.10;;;;;;5092669;28;20043;-75
2021/04/08 05:30:03;;;;;;;14.77;9.38;;;13.00;55.30;;;;;;5091347;28;20060;-77
2021/04/08 05:32:31;;;;;;;15.07;9.50;;;13.10;55.20;;;;;;5087820;28;20031;-75
2021/04/08 05:34:56;;;;;;;13.90;9.23;;;13.30;55.30;;;;;;5085264;28;20012;-75
2021/04/08 05:37:22;;;;;;;13.07;9.48;;;13.60;54.50;;;;;;5092413;28;20359;-77
2021/04/08 05:39:48;;;;;;;13.60;10.55;;;14.00;54.30;;;;;;5089656;28;20879;-73
2021/04/08 05:42:13;;;;;;;12.57;9.50;;;14.30;53.60;;;;;;5087447;28;20111;-80
2021/04/08 05:44:39;;;;;;;13.38;9.50;;;14.60;53.10;;;;;;5091574;28;20480;-74
2021/04/08 05:47:05;;;;;;;12.27;8.82;;;15.00;52.50;;;;;;5091109;28;20047;-78
2021/04/08 05:49:31;;;;;;;11.85;8.60;;;15.40;51.30;;;;;;5080263;28;20025;-81
2021/04/08 05:51:56;;;;;;;12.93;9.57;;;15.80;49.80;;;;;;5072893;28;20024;-72
2021/04/08 05:54:22;;;;;;;12.98;9.68;;;16.10;49.20;;;;;;5081350;28;20069;-77
2021/04/08 05:56:48;;;;;;;15.25;8.82;;;16.10;48.60;;;;;;5090093;28;20027;-82
2021/04/08 05:59:13;;;;;;;13.35;9.90;;;16.20;47.80;;;;;;5088113;28;20323;-77
2021/04/08 06:01:39;;;;;;;12.65;9.00;;;16.30;47.40;;;;;;5084875;28;20538;-78
2021/04/08 06:04:05;;;;;;;14.77;10.50;;;16.30;47.30;;;;;;5087949;28;20040;-78
2021/04/08 06:06:30;;;;;;;15.52;11.18;;;16.30;47.00;;;;;;5087842;28;20040;-78
2021/04/08 06:08:56;;;;;;;15.45;11.20;;;16.70;46.10;;;;;;5091457;28;20016;-77
2021/04/08 06:11:22;;;;;;;14.20;10.35;;;17.20;45.60;;;;;;5091691;28;20017;-76
2021/04/08 06:13:48;;;;;;;16.02;9.52;;;17.60;45.00;;;;;;5092400;28;20041;-75
2021/04/08 06:16:14;;;;;;;15.02;9.45;;;17.80;43.90;;;;;;5091395;28;20111;-77
2021/04/08 06:18:40;;;;;;;13.63;9.10;;;17.80;43.70;;;;;;5091362;28;20031;-76
2021/04/08 06:21:08;;;;;;;14.50;9.93;;;17.60;43.60;;;;;;5094353;28;20032;-77
2021/04/08 06:23:33;;;;;;;12.73;10.23;;;17.80;42.70;;;;;;5089195;28;20028;-73
2021/04/08 06:25:59;;;;;;;12.50;9.32;;;18.10;42.20;;;;;;5090330;28;20032;-74
2021/04/08 06:28:25;;;;;;;12.05;9.13;;;18.20;41.70;;;;;;5083606;28;20021;-75
2021/04/08 06:30:51;;;;;;;10.00;7.93;;;18.50;41.60;;;;;;5094275;28;20019;-74
2021/04/08 06:33:17;;;;;;;12.55;8.25;;;18.70;41.50;;;;;;5093912;28;20100;-76
2021/04/08 06:35:42;;;;;;;14.02;9.55;;;18.80;40.80;;;;;;5094401;28;20028;-74
2021/04/08 06:38:08;;;;;;;12.52;9.02;;;19.00;40.70;;;;;;5094071;28;20493;-74
2021/04/08 06:40:34;;;;;;;11.07;8.45;;;19.10;40.50;;;;;;5093975;28;20043;-73
2021/04/08 06:43:03;;;;;;;12.02;8.98;;;19.30;40.30;;;;;;5094653;28;20515;-73
2021/04/08 06:45:33;;;;;;;9.27;7.07;;;19.80;39.40;;;;;;5095510;28;20032;-73
2021/04/08 06:48:01;;;;;;;15.45;8.23;;;20.10;37.90;;;;;;5110496;28;20120;-80
2021/04/08 06:50:32;;;;;;;11.77;8.70;;;19.90;38.40;;;;;;5080958;28;20016;-73
2021/04/08 06:52:58;;;;;;;9.60;7.15;;;19.80;37.70;;;;;;5093800;28;20016;-73
2021/04/08 06:55:24;;;;;;;11.95;7.47;;;19.40;38.00;;;;;;5087995;28;20024;-73
2021/04/08 06:57:51;;;;;;;11.23;7.10;;;19.60;38.00;;;;;;5095194;28;20020;-73
2021/04/08 07:00:17;;;;;;;12.00;7.47;;;19.50;37.00;;;;;;5093996;28;20528;-74
2021/04/08 07:02:44;;;;;;;15.27;9.15;;;19.50;36.80;;;;;;5089656;28;20062;-73
2021/04/08 07:05:10;;;;;;;9.50;6.97;;;19.80;36.90;;;;;;5085182;28;20047;-73
2021/04/08 07:07:36;;;;;;;9.98;7.53;;;20.20;36.10;;;;;;5093710;28;20351;-74
2021/04/08 07:10:03;;;;;;;9.10;6.85;;;20.40;35.50;;;;;;5094298;28;20031;-73
2021/04/08 07:12:29;;;;;;;8.93;6.00;;;20.50;34.40;;;;;;5095221;28;20561;-73
2021/04/08 07:14:55;;;;;;;7.68;6.07;;;20.60;34.40;;;;;;5094970;28;20099;-75
2021/04/08 07:17:21;;;;;;;8.27;6.43;;;20.60;34.00;;;;;;5095261;28;20458;-74
2021/04/08 07:19:47;;;;;;;9.20;6.15;;;20.60;33.90;;;;;;5080852;28;20024;-74
2021/04/08 07:22:14;;;;;;;11.73;8.57;;;20.60;33.80;;;;;;5094853;28;20020;-74
2021/04/08 07:24:47;;;;;;;14.77;8.40;;;20.30;33.20;;;;;;5094902;28;20016;-74
2021/04/08 07:27:19;;;;;;;10.45;6.30;;;19.90;34.00;;;;;;5093449;28;20032;-74
2021/04/08 07:29:52;;;;;;;10.23;6.95;;;20.20;34.50;;;;;;5090856;28;20419;-74
2021/04/08 07:32:24;;;;;;;9.75;6.65;;;20.50;34.20;;;;;;5084542;28;20408;-74
2021/04/08 07:34:55;;;;;;;9.63;6.45;;;20.50;33.90;;;;;;5080406;28;20019;-74
2021/04/08 07:37:26;;;;;;;8.25;6.43;;;20.50;33.80;;;;;;5084458;28;20028;-74
2021/04/08 07:39:52;;;;;;;8.25;6.40;;;20.80;33.50;;;;;;5090350;28;20048;-74
2021/04/08 07:42:24;;;;;;;9.32;7.30;;;21.00;33.20;;;;;;5094572;28;20028;-74
2021/04/08 07:45:00;;;;;;;9.27;5.43;;;20.90;33.10;;;;;;5078857;28;20052;-74
2021/04/08 07:47:26;;;;;;;9.50;5.68;;;21.10;32.70;;;;;;5083809;28;20029;-74
2021/04/08 07:50:16;;;;;;;10.32;6.05;;;21.30;32.20;;;;;;5089808;28;20020;-74
2021/04/08 07:52:44;;;;;;;9.30;6.18;;;21.10;32.60;;;;;;5094833;28;20016;-73
2021/04/08 07:55:28;;;;;;;9.10;5.68;;;21.20;32.50;;;;;;5078179;28;20020;-74
2021/04/08 07:58:00;;;;;;;8.65;5.90;;;21.40;31.40;;;;;;5094745;28;20065;-74
2021/04/08 08:00:33;;;;;;;9.75;6.18;;;21.20;30.80;;;;;;5088277;28;20013;-74
2021/04/08 08:03:02;;;;;;;10.63;6.00;;;21.20;31.60;;;;;;5077406;28;20025;-73
2021/04/08 08:05:29;;;;;;;7.63;5.72;;;21.10;31.30;;;;;;5087795;28;20048;-78
2021/04/08 08:08:08;;;;;;;10.73;6.20;;;20.20;31.00;;;;;;5092428;28;20020;-73
2021/04/08 08:10:34;;;;;;;8.25;5.90;;;19.20;31.50;;;;;;5093855;28;20023;-81
2021/04/08 08:13:00;;;;;;;11.63;6.18;;;19.10;32.40;;;;;;5093980;28;20043;-74
2021/04/08 08:15:28;;;;;;;13.88;6.40;;;19.70;33.30;;;;;;5094501;28;20444;-74
2021/04/08 08:17:56;;;;;;;9.27;6.13;;;20.00;32.00;;;;;;5093925;28;20023;-74
2021/04/08 08:20:24;;;;;;;11.02;6.22;;;20.20;32.20;;;;;;5081741;28;20028;-74
2021/04/08 08:22:49;;;;;;;12.77;6.47;;;19.80;31.00;;;;;;5090771;28;20028;-74
2021/04/08 08:25:23;;;;;;;8.25;5.68;;;19.70;32.10;;;;;;5093519;28;20085;-74
2021/04/08 08:27:51;;;;;;;11.00;5.80;;;19.80;31.30;;;;;;5093583;28;20469;-74
2021/04/08 08:30:18;;;;;;;12.10;5.40;;;19.30;30.30;;;;;;5085300;28;20070;-73
2021/04/08 08:33:04;;;;;;;13.23;6.32;;;18.90;31.00;;;;;;5073585;28;20424;-74
2021/04/08 08:35:29;;;;;;;9.55;5.50;;;18.70;30.50;;;;;;5093933;28;20469;-73
2021/04/08 08:38:07;;;;;;;8.18;4.88;;;18.50;30.90;;;;;;5093453;28;20024;-74
2021/04/08 08:40:33;;;;;;;6.35;4.53;;;19.00;30.60;;;;;;5083474;28;20100;-74
2021/04/08 08:43:00;;;;;;;7.07;4.97;;;19.60;30.10;;;;;;5088010;28;20482;-73
2021/04/08 08:45:26;;;;;;;7.40;5.22;;;19.20;29.50;;;;;;5093228;28;20073;-73
2021/04/08 08:47:53;;;;;;;9.85;6.00;;;18.50;30.00;;;;;;5079065;28;20025;-73
2021/04/08 08:50:19;;;;;;;8.68;5.40;;;18.30;30.00;;;;;;5086187;28;20099;-72
2021/04/08 08:52:51;;;;;;;10.15;5.70;;;17.70;30.00;;;;;;5084196;28;20107;-72
2021/04/08 08:55:19;;;;;;;10.13;6.40;;;16.90;30.40;;;;;;5092838;28;20016;-73
2021/04/08 08:57:53;;;;;;;9.88;6.47;;;17.00;31.90;;;;;;5093375;28;20016;-73
2021/04/08 09:00:21;;;;;;;19.20;6.25;;;17.60;32.20;;;;;;5093511;28;20024;-73
2021/04/08 09:02:46;;;;;;;8.90;5.65;;;18.50;31.80;;;;;;5093292;28;20033;-73
2021/04/08 09:05:19;;;;;;;9.60;5.97;;;19.40;30.80;;;;;;5092984;28;20153;-73
2021/04/08 09:07:47;;;;;;;8.77;5.80;;;20.00;30.00;;;;;;5077573;28;20028;-73
2021/04/08 09:10:19;;;;;;;6.15;5.15;;;20.20;28.80;;;;;;5081784;28;20020;-74
2021/04/08 09:12:45;;;;;;;9.15;5.20;;;20.30;28.90;;;;;;5089685;28;20024;-74
2021/04/08 09:15:11;;;;;;;8.75;5.95;;;20.70;27.80;;;;;;5092745;28;20031;-73
2021/04/08 09:17:44;;;;;;;7.32;5.50;;;20.60;28.20;;;;;;5093092;28;20020;-73
2021/04/08 09:20:16;;;;;;;7.95;5.15;;;20.90;27.90;;;;;;5084043;28;20048;-73
2021/04/08 09:22:52;;;;;;;26.80;8.70;;;20.80;27.40;;;;;;5089274;28;20016;-73
2021/04/08 09:25:19;;;;;;;28.70;11.95;;;20.80;27.10;;;;;;5092558;28;20028;-73
2021/04/08 09:27:54;;;;;;;60.55;18.70;;;20.30;27.20;;;;;;5077315;28;20025;-73
2021/04/08 09:30:49;;;;;;;40.25;12.13;;;19.60;27.90;;;;;;5093297;28;20020;-73
2021/04/08 09:33:16;;;;;;;16.27;7.25;;;18.60;28.60;;;;;;5092486;28;20054;-73
2021/04/08 09:35:43;;;;;;;10.07;6.40;;;18.30;29.10;;;;;;5092764;28;20032;-73
2021/04/08 09:38:09;;;;;;;7.30;5.88;;;18.20;29.10;;;;;;5092664;28;20354;-73
2021/04/08 09:40:36;;;;;;;11.45;6.50;;;18.70;29.10;;;;;;5082586;28;20074;-73
2021/04/08 09:43:05;;;;;;;8.98;6.63;;;18.80;28.90;;;;;;5087813;28;20012;-73
2021/04/08 09:45:34;;;;;;;8.52;5.85;;;18.40;28.60;;;;;;5092674;28;20024;-72
2021/04/08 09:48:06;;;;;;;8.82;6.60;;;17.20;28.20;;;;;;5092419;28;20016;-80
2021/04/08 09:50:45;;;;;;;10.43;6.53;;;16.60;29.60;;;;;;5084604;28;20361;-72
2021/04/08 09:53:13;;;;;;;28.60;9.43;;;16.70;30.10;;;;;;5087136;28;20020;-72
2021/04/08 09:55:41;;;;;;;12.35;7.72;;;16.70;30.40;;;;;;5092806;28;20446;-72
2021/04/08 09:58:09;;;;;;;12.30;6.80;;;16.30;30.60;;;;;;5077878;28;20020;-72
2021/04/08 10:00:35;;;;;;;8.68;5.10;;;15.70;31.00;;;;;;5084888;28;20023;-72
2021/04/08 10:03:04;;;;;;;9.60;6.43;;;14.80;31.20;;;;;;5076136;28;20103;-71
2021/04/08 10:05:32;;;;;;;8.57;6.32;;;13.70;32.30;;;;;;5090131;28;20462;-70
2021/04/08 10:07:59;;;;;;;8.00;5.80;;;13.00;33.80;;;;;;5095644;28;20023;-71
2021/04/08 10:10:36;;;;;;;10.10;6.60;;;12.70;35.60;;;;;;5096247;28;20024;-71
2021/04/08 10:13:32;;;;;;;12.98;6.35;;;12.70;35.60;;;;;;5082119;28;20016;-71
2021/04/08 10:16:07;;;;;;;10.37;6.60;;;12.50;35.50;;;;;;5093898;28;20035;-71
2021/04/08 10:18:33;;;;;;;9.27;6.80;;;13.10;37.20;;;;;;5086144;28;20335;-72
2021/04/08 10:21:02;;;;;;;9.90;7.15;;;14.20;37.50;;;;;;5095680;28;20020;-72
2021/04/08 10:23:44;;;;;;;10.10;7.10;;;15.40;36.70;;;;;;5087772;28;20351;-72
2021/04/08 10:26:16;;;;;;;9.45;6.70;;;16.50;34.90;;;;;;5091312;28;20355;-72
2021/04/08 10:28:52;;;;;;;9.90;7.00;;;17.40;33.30;;;;;;5096592;28;20020;-72
2021/04/08 10:31:28;;;;;;;12.23;8.55;;;18.10;32.70;;;;;;5094566;28;20020;-72
2021/04/08 10:34:04;;;;;;;11.27;8.10;;;18.40;32.00;;;;;;5095886;28;20031;-72
2021/04/08 10:36:42;;;;;;;14.90;9.50;;;18.30;32.10;;;;;;5095790;28;20076;-72
2021/04/08 10:39:09;;;;;;;14.27;9.00;;;18.20;32.40;;;;;;5094517;28;20024;-73
2021/04/08 10:41:36;;;;;;;11.93;7.97;;;18.50;32.30;;;;;;5079895;28;20024;-73
2021/04/08 10:44:24;;;;;;;11.75;8.38;;;18.80;32.00;;;;;;5095762;28;20031;-72
2021/04/08 10:46:51;;;;;;;11.10;7.63;;;19.10;32.10;;;;;;5095797;28;20412;-73
2021/04/08 10:49:24;;;;;;;10.07;7.15;;;19.30;31.90;;;;;;5095470;28;20024;-73
2021/04/08 10:51:51;;;;;;;11.10;7.53;;;19.30;32.10;;;;;;5079927;28;20041;-73
2021/04/08 10:54:17;;;;;;;8.82;6.85;;;19.50;32.40;;;;;;5095649;28;20335;-73
2021/04/08 10:56:48;;;;;;;11.00;7.20;;;19.60;32.00;;;;;;5092115;28;20024;-73
2021/04/08 10:59:18;;;;;;;10.48;6.50;;;20.00;31.50;;;;;;5083854;28;20060;-73
2021/04/08 11:01:44;;;;;;;8.90;5.35;;;20.10;30.20;;;;;;5095238;28;20055;-73
2021/04/08 11:04:10;;;;;;;7.97;4.90;;;20.20;30.20;;;;;;5081267;28;20020;-73
2021/04/08 11:06:36;;;;;;;7.93;5.13;;;20.30;29.50;;;;;;5084413;28;20051;-73
2021/04/08 11:09:02;;;;;;;7.15;5.57;;;20.00;28.80;;;;;;5090132;28;20024;-73
2021/04/08 11:11:28;;;;;;;11.68;6.28;;;19.60;29.00;;;;;;5095090;28;20048;-73
2021/04/08 11:13:53;;;;;;;8.43;5.82;;;19.50;29.20;;;;;;5095207;28;20471;-73
2021/04/08 11:16:19;;;;;;;7.80;6.18;;;19.30;29.30;;;;;;5094619;28;20102;-72
2021/04/08 11:18:46;;;;;;;8.65;5.50;;;18.70;29.60;;;;;;5095260;28;20027;-73
2021/04/08 11:21:11;;;;;;;12.65;6.95;;;18.20;30.20;;;;;;5094596;28;20087;-72
2021/04/08 11:23:37;;;;;;;34.10;10.70;;;17.80;30.40;;;;;;5095197;28;20499;-73
2021/04/08 11:26:05;;;;;;;22.35;9.32;;;16.90;31.00;;;;;;5094612;28;20036;-72
2021/04/08 11:28:31;;;;;;;31.35;15.20;;;16.30;32.00;;;;;;5093900;28;20035;-71
2021/04/08 11:30:57;;;;;;;10.32;8.55;;;15.60;33.00;;;;;;5094841;28;20095;-72
2021/04/08 11:33:24;;;;;;;18.50;9.10;;;15.50;34.40;;;;;;5094847;28;20104;-71
2021/04/08 11:35:50;;;;;;;32.28;15.50;;;15.30;34.70;;;;;;5094734;28;20032;-71
2021/04/08 11:38:19;;;;;;;11.10;7.80;;;14.70;35.00;;;;;;5080635;28;20078;-73
2021/04/08 11:40:45;;;;;;;15.63;8.73;;;14.10;35.10;;;;;;5094889;28;20017;-72
2021/04/08 11:43:23;;;;;;;16.70;9.52;;;13.40;36.00;;;;;;5091748;28;20369;-71
2021/04/08 11:45:49;;;;;;;15.07;9.18;;;12.70;37.50;;;;;;5084742;28;20103;-72
2021/04/08 11:48:15;;;;;;;32.83;16.20;;;12.10;38.40;;;;;;5094288;28;20023;-71
2021/04/08 11:50:49;;;;;;;10.88;6.00;;;11.80;39.40;;;;;;5094228;28;20042;-71
2021/04/08 11:53:31;;;;;;;9.77;5.60;;;11.40;40.00;;;;;;5093917;28;20400;-71
2021/04/08 11:55:56;;;;;;;10.10;6.15;;;11.00;40.90;;;;;;5094778;28;20361;-71
2021/04/08 11:58:29;;;;;;;7.43;4.90;;;10.50;42.40;;;;;;5094048;28;20066;-71
2021/04/08 12:01:16;;;;;;;7.32;2.83;;;10.00;43.50;;;;;;5094160;28;20030;-72
2021/04/08 12:03:44;;;;;;;4.45;2.72;;;9.50;44.70;;;;;;5094166;28;20024;-71
2021/04/08 12:06:10;;;;;;;5.80;2.75;;;9.10;46.10;;;;;;5093680;28;20089;-71
2021/04/08 12:08:53;;;;;;;3.65;1.90;;;8.50;47.40;;;;;;5094157;28;20046;-71
2021/04/08 12:11:21;;;;;;;3.33;2.00;;;7.90;49.20;;;;;;5079882;28;20023;-70
2021/04/08 12:14:04;;;;;;;3.58;1.70;;;7.40;50.90;;;;;;5094027;28;20108;-71
2021/04/08 12:16:30;;;;;;;3.60;2.38;;;7.00;52.20;;;;;;5079656;28;20048;-70
2021/04/08 12:18:56;;;;;;;4.35;2.45;;;6.90;53.20;;;;;;5093720;28;20414;-71
2021/04/08 12:21:24;;;;;;;12.13;4.43;;;6.90;54.20;;;;;;5079909;28;20354;-70
2021/04/08 12:23:50;;;;;;;85.88;17.20;;;7.00;55.00;;;;;;5093943;28;20069;-71
2021/04/08 12:26:30;;;;;;;94.00;18.73;;;7.20;55.50;;;;;;5091307;28;20028;-71
2021/04/08 12:28:56;;;;;;;61.60;19.13;;;7.40;56.00;;;;;;5093528;28;20024;-71
2021/04/08 12:31:22;;;;;;;69.72;19.85;;;7.70;56.20;;;;;;5093326;28;20469;-71
2021/04/08 12:33:48;;;;;;;20.95;7.53;;;8.00;56.40;;;;;;5093729;28;20035;-71
2021/04/08 12:36:14;;;;;;;10.23;5.13;;;8.30;56.30;;;;;;5093355;28;20435;-71
2021/04/08 12:38:40;;;;;;;12.15;6.68;;;8.50;55.10;;;;;;5093553;28;20391;-72
2021/04/08 12:41:06;;;;;;;12.65;7.50;;;8.70;54.60;;;;;;5079923;28;20051;-71
2021/04/08 12:43:33;;;;;;;11.93;7.25;;;8.80;54.50;;;;;;5093515;28;20028;-71
2021/04/08 12:46:00;;;;;;;11.90;7.57;;;8.90;54.30;;;;;;5093569;28;20467;-71
2021/04/08 12:48:26;;;;;;;9.48;6.20;;;9.00;54.20;;;;;;5079388;28;20031;-72
2021/04/08 12:50:54;;;;;;;12.10;6.00;;;9.10;54.00;;;;;;5083763;28;20027;-71